Time;durP1;ratioP1;P1;durP2;ratioP2;P2;SDS_P1;SDS_P2;PMS_P1;PMS_P2;Temp;Humidity;BMP_temperature;BMP_pressure;BME280_temperature;BME280_humidity;BME280_pressure;Samples;Min_cycle;Max_cycle;Signal;HPM_P1;HPM_P2
2021/12/29 00:01:25;;;;;;;78.88;38.70;;;-5.10;99.90;;;;;;5051842;28;20056;-77
2021/12/29 00:03:51;;;;;;;85.75;37.67;;;-5.10;99.90;;;;;;5050300;28;20029;-77
2021/12/29 00:06:17;;;;;;;86.72;36.95;;;-5.10;99.90;;;;;;5051715;28;20386;-77
2021/12/29 00:08:43;;;;;;;72.13;35.17;;;-5.10;99.90;;;;;;5050496;28;20021;-76
2021/12/29 00:11:08;;;;;;;79.00;38.47;;;-5.10;99.90;;;;;;5050295;28;20025;-77
2021/12/29 00:13:34;;;;;;;71.20;34.63;;;-5.00;99.90;;;;;;5050265;28;20029;-77
2021/12/29 00:16:01;;;;;;;84.07;36.67;;;-5.00;99.90;;;;;;5049949;28;20028;-77
2021/12/29 00:18:36;;;;;;;73.25;36.05;;;-5.00;99.90;;;;;;5050214;28;20029;-77
2021/12/29 00:21:04;;;;;;;75.65;33.63;;;-5.00;99.90;;;;;;5067819;28;20024;-77
2021/12/29 00:23:29;;;;;;;76.40;32.83;;;-5.00;99.90;;;;;;5071263;28;20020;-77
2021/12/29 00:25:55;;;;;;;67.20;31.27;;;-5.00;99.90;;;;;;5068473;28;20406;-76
2021/12/29 00:28:21;;;;;;;61.58;29.42;;;-4.90;99.90;;;;;;5069943;28;20444;-77
2021/12/29 00:30:47;;;;;;;77.90;32.60;;;-4.90;99.90;;;;;;5065135;28;20039;-76
2021/12/29 00:33:12;;;;;;;57.90;28.08;;;-4.90;99.90;;;;;;5050046;28;20119;-76
2021/12/29 00:35:41;;;;;;;65.05;31.83;;;-4.90;99.90;;;;;;5064994;28;20441;-77
2021/12/29 00:38:07;;;;;;;68.20;33.95;;;-4.90;99.90;;;;;;5070057;28;20035;-76
2021/12/29 00:40:34;;;;;;;68.63;32.50;;;-4.90;99.90;;;;;;5069980;28;20111;-76
2021/12/29 00:43:00;;;;;;;71.93;36.28;;;-4.90;99.90;;;;;;5051445;28;20125;-76
2021/12/29 00:45:27;;;;;;;64.95;31.10;;;-4.80;99.90;;;;;;5049749;28;20064;-76
2021/12/29 00:47:53;;;;;;;78.40;32.30;;;-4.90;99.90;;;;;;5050044;28;20025;-76
2021/12/29 00:50:20;;;;;;;69.15;34.05;;;-4.90;99.90;;;;;;5051137;28;20398;-76
2021/12/29 00:52:46;;;;;;;66.18;29.17;;;-4.80;99.90;;;;;;5049886;28;20021;-76
2021/12/29 00:55:16;;;;;;;68.38;31.95;;;-4.90;99.90;;;;;;5067911;28;20066;-76
2021/12/29 00:57:42;;;;;;;66.07;29.50;;;-4.80;99.90;;;;;;5071155;28;20025;-76
2021/12/29 01:00:12;;;;;;;65.43;31.38;;;-4.90;99.90;;;;;;5069786;28;20028;-76
2021/12/29 01:02:38;;;;;;;71.10;32.45;;;-4.90;99.90;;;;;;5069647;28;20466;-76
2021/12/29 01:05:05;;;;;;;74.88;30.85;;;-4.90;99.90;;;;;;5070941;28;20032;-76
2021/12/29 01:07:31;;;;;;;66.80;31.80;;;-4.90;99.90;;;;;;5069749;28;20021;-76
2021/12/29 01:09:59;;;;;;;70.10;34.20;;;-4.90;99.90;;;;;;5069598;28;20029;-76
2021/12/29 01:12:25;;;;;;;71.07;33.45;;;-4.90;99.90;;;;;;5069657;28;20027;-76
2021/12/29 01:14:54;;;;;;;68.70;32.03;;;-4.90;99.90;;;;;;5069597;28;20111;-75
2021/12/29 01:17:21;;;;;;;66.72;31.95;;;-5.00;99.90;;;;;;5062958;28;20021;-76
2021/12/29 01:19:48;;;;;;;71.13;31.65;;;-5.00;99.90;;;;;;5050795;28;20075;-76
2021/12/29 01:22:13;;;;;;;58.58;29.38;;;-5.00;99.90;;;;;;5049571;28;20078;-76
2021/12/29 01:24:39;;;;;;;70.75;30.70;;;-5.00;99.90;;;;;;5049391;28;20460;-76
2021/12/29 01:27:05;;;;;;;72.68;31.58;;;-5.10;99.90;;;;;;5052881;28;20017;-76
2021/12/29 01:29:31;;;;;;;73.75;32.30;;;-5.10;99.90;;;;;;5053343;28;20112;-77
2021/12/29 01:31:58;;;;;;;65.90;33.78;;;-5.10;99.90;;;;;;5053375;28;20116;-77
2021/12/29 01:34:24;;;;;;;66.85;28.80;;;-5.10;99.90;;;;;;5054596;28;20416;-77
2021/12/29 01:36:50;;;;;;;68.57;30.60;;;-5.10;99.90;;;;;;5053337;28;20273;-76
2021/12/29 01:39:18;;;;;;;67.80;30.20;;;-5.20;99.90;;;;;;5053144;28;20390;-76
2021/12/29 01:41:45;;;;;;;69.00;31.58;;;-5.20;99.90;;;;;;5053132;28;20021;-76
2021/12/29 01:44:13;;;;;;;65.05;29.55;;;-5.20;99.90;;;;;;5052870;28;20036;-76
2021/12/29 01:46:40;;;;;;;65.55;28.13;;;-5.20;99.90;;;;;;5054321;28;20031;-75
2021/12/29 01:49:06;;;;;;;65.07;28.65;;;-5.10;99.90;;;;;;5052986;28;20549;-76
2021/12/29 01:51:32;;;;;;;56.63;27.27;;;-5.00;99.90;;;;;;5054212;28;20024;-76
2021/12/29 01:56:40;;;;;;;62.80;28.45;;;-4.90;99.90;;;;;;5054260;28;20390;-76
2021/12/29 01:59:06;;;;;;;59.47;28.92;;;-4.80;99.90;;;;;;5052898;28;20029;-75
2021/12/29 02:01:32;;;;;;;60.22;30.20;;;-4.80;99.90;;;;;;5052885;28;20108;-76
2021/12/29 02:04:00;;;;;;;67.13;30.67;;;-4.70;99.90;;;;;;5053999;28;20123;-76
2021/12/29 02:06:25;;;;;;;60.22;29.98;;;-4.70;99.90;;;;;;5053966;28;20017;-76
2021/12/29 02:08:53;;;;;;;53.63;25.63;;;-4.60;99.90;;;;;;5052991;28;20029;-75
2021/12/29 02:11:28;;;;;;;70.80;31.73;;;-4.60;99.90;;;;;;5052729;28;20034;-75
2021/12/29 02:13:54;;;;;;;70.15;32.70;;;-4.50;99.90;;;;;;5052834;28;20022;-76
2021/12/29 02:16:20;;;;;;;64.32;30.55;;;-4.50;99.90;;;;;;5052563;28;20040;-77
2021/12/29 02:18:53;;;;;;;70.03;31.60;;;-4.50;99.90;;;;;;5053821;28;20029;-77
2021/12/29 02:21:21;;;;;;;75.00;31.38;;;-4.40;99.90;;;;;;5053731;28;20025;-77
2021/12/29 02:24:05;;;;;;;61.55;30.67;;;-4.40;99.90;;;;;;5052272;28;20017;-77
2021/12/29 02:26:32;;;;;;;61.08;30.63;;;-4.30;99.90;;;;;;5053966;28;20446;-76
2021/12/29 02:29:01;;;;;;;68.00;32.70;;;-4.30;99.90;;;;;;5053434;28;20057;-76
2021/12/29 02:31:27;;;;;;;74.38;33.13;;;-4.20;99.90;;;;;;5052144;28;20033;-76
2021/12/29 02:33:54;;;;;;;71.03;33.90;;;-4.20;99.90;;;;;;5053331;28;20470;-76
2021/12/29 02:36:21;;;;;;;62.78;31.40;;;-4.20;99.90;;;;;;5053473;28;20033;-76
2021/12/29 02:38:52;;;;;;;77.35;33.85;;;-4.20;99.90;;;;;;5052913;28;20040;-76
2021/12/29 02:41:17;;;;;;;67.18;32.10;;;-4.10;99.90;;;;;;5052344;28;20083;-76
2021/12/29 02:43:44;;;;;;;71.43;35.50;;;-4.10;99.90;;;;;;5051722;28;20598;-76
2021/12/29 02:46:12;;;;;;;69.45;30.52;;;-4.10;99.90;;;;;;5052922;28;20048;-76
2021/12/29 02:48:49;;;;;;;68.97;34.00;;;-4.10;99.90;;;;;;5051714;28;20475;-76
2021/12/29 02:51:15;;;;;;;73.38;32.30;;;-4.10;99.90;;;;;;5053159;28;20114;-76
2021/12/29 02:53:41;;;;;;;70.38;33.15;;;-4.10;99.90;;;;;;5051877;28;20041;-75
2021/12/29 02:56:06;;;;;;;71.55;33.47;;;-4.20;99.90;;;;;;5051776;28;20024;-75
2021/12/29 02:58:32;;;;;;;73.00;32.55;;;-4.20;99.90;;;;;;5051754;28;20024;-75
2021/12/29 03:01:00;;;;;;;77.25;35.92;;;-4.20;99.90;;;;;;5051547;28;20013;-75
2021/12/29 03:03:28;;;;;;;80.95;38.03;;;-4.10;99.90;;;;;;5051517;28;20021;-76
2021/12/29 03:05:54;;;;;;;72.72;33.55;;;-4.10;99.90;;;;;;5051496;28;20036;-76
2021/12/29 03:08:21;;;;;;;69.25;34.17;;;-4.10;99.90;;;;;;5052706;28;20099;-76
2021/12/29 03:10:52;;;;;;;78.35;35.95;;;-4.10;99.90;;;;;;5051284;28;20032;-76
2021/12/29 03:13:22;;;;;;;79.38;36.78;;;-4.10;99.90;;;;;;5051615;28;20083;-77
2021/12/29 03:15:48;;;;;;;70.05;34.58;;;-4.10;99.90;;;;;;5052668;28;20390;-77
2021/12/29 03:18:14;;;;;;;79.97;35.58;;;-4.00;99.90;;;;;;5052623;28;20021;-76
2021/12/29 03:20:39;;;;;;;104.95;39.22;;;-4.00;99.90;;;;;;5052469;28;20029;-76
2021/12/29 03:23:05;;;;;;;84.03;35.55;;;-4.00;99.90;;;;;;5051281;28;20021;-76
2021/12/29 03:25:31;;;;;;;85.22;39.25;;;-4.00;99.90;;;;;;5052294;28;20613;-76
2021/12/29 03:27:59;;;;;;;88.65;39.33;;;-4.00;99.90;;;;;;5051170;28;20056;-76
2021/12/29 03:30:31;;;;;;;71.20;31.80;;;-4.00;99.90;;;;;;5052402;28;20470;-76
2021/12/29 03:33:03;;;;;;;74.00;34.60;;;-4.00;99.90;;;;;;5051025;28;20024;-76
2021/12/29 03:35:37;;;;;;;74.47;35.07;;;-4.00;99.90;;;;;;5052252;28;20020;-76
2021/12/29 03:38:06;;;;;;;78.43;34.95;;;-3.90;99.90;;;;;;5052302;28;20479;-77
2021/12/29 03:40:35;;;;;;;66.32;33.72;;;-3.90;99.90;;;;;;5050839;28;20021;-75
2021/12/29 03:43:01;;;;;;;71.68;32.72;;;-3.90;99.90;;;;;;5050866;28;20021;-76
2021/12/29 03:45:27;;;;;;;68.55;33.78;;;-3.90;99.90;;;;;;5050610;28;20037;-75
2021/12/29 03:47:53;;;;;;;75.97;35.08;;;-3.90;99.90;;;;;;5050902;28;20378;-75
2021/12/29 03:50:18;;;;;;;80.65;33.95;;;-3.90;99.90;;;;;;5049963;28;20104;-76
2021/12/29 03:52:44;;;;;;;67.63;31.48;;;-3.90;99.90;;;;;;5050721;28;20059;-76
2021/12/29 03:55:10;;;;;;;72.85;32.83;;;-3.90;99.90;;;;;;5051853;28;20434;-76
2021/12/29 03:57:36;;;;;;;64.68;31.73;;;-3.90;99.90;;;;;;5050671;28;20549;-76
2021/12/29 04:00:04;;;;;;;75.45;31.33;;;-3.80;99.90;;;;;;5050553;28;20501;-76
2021/12/29 04:02:30;;;;;;;64.13;31.40;;;-3.90;99.90;;;;;;5051740;28;20029;-75
2021/12/29 04:04:55;;;;;;;72.60;33.78;;;-3.90;99.90;;;;;;5051720;28;20029;-76
2021/12/29 04:07:21;;;;;;;70.95;33.60;;;-3.90;99.90;;;;;;5050479;28;20017;-76
2021/12/29 04:09:47;;;;;;;75.53;35.42;;;-3.80;99.90;;;;;;5050424;28;20496;-76
2021/12/29 04:12:12;;;;;;;73.75;34.83;;;-3.80;99.90;;;;;;5050388;28;20029;-77
2021/12/29 04:14:38;;;;;;;71.15;32.53;;;-3.80;99.90;;;;;;5050280;28;20099;-76
2021/12/29 04:17:09;;;;;;;77.43;33.17;;;-3.80;99.90;;;;;;5051674;28;20025;-76
2021/12/29 04:22:21;;;;;;;78.22;36.28;;;-3.70;99.90;;;;;;5051758;28;20036;-76
2021/12/29 04:24:47;;;;;;;71.53;35.45;;;-3.70;99.90;;;;;;5052313;28;20037;-76
2021/12/29 04:27:13;;;;;;;79.25;33.55;;;-3.80;99.90;;;;;;5050149;28;20040;-76
2021/12/29 04:29:38;;;;;;;73.90;36.30;;;-3.80;99.90;;;;;;5051391;28;20025;-76
2021/12/29 04:32:04;;;;;;;76.68;33.42;;;-3.80;99.90;;;;;;5071319;28;20020;-77
2021/12/29 04:34:29;;;;;;;72.80;33.95;;;-3.70;99.90;;;;;;5071254;28;20513;-76
2021/12/29 04:36:55;;;;;;;76.53;35.90;;;-3.70;99.90;;;;;;5071436;28;20027;-76
2021/12/29 04:39:21;;;;;;;67.50;33.88;;;-3.70;99.90;;;;;;5069996;28;20478;-76
2021/12/29 04:41:46;;;;;;;82.88;35.22;;;-3.70;99.90;;;;;;5071340;28;20474;-76
2021/12/29 04:44:12;;;;;;;76.85;35.00;;;-3.60;99.90;;;;;;5070076;28;20036;-75
2021/12/29 04:46:40;;;;;;;75.45;34.92;;;-3.60;99.90;;;;;;5071318;28;20409;-75
2021/12/29 04:49:09;;;;;;;71.60;35.58;;;-3.50;99.90;;;;;;5069889;28;20056;-75
2021/12/29 04:51:36;;;;;;;70.10;33.80;;;-3.50;99.90;;;;;;5070877;28;20103;-76
2021/12/29 04:54:05;;;;;;;74.50;34.20;;;-3.50;99.90;;;;;;5071052;28;20024;-76
2021/12/29 04:56:32;;;;;;;70.93;32.17;;;-3.50;99.90;;;;;;5056527;28;20021;-76
2021/12/29 04:58:58;;;;;;;76.80;35.22;;;-3.50;99.90;;;;;;5049836;28;20025;-76
2021/12/29 05:01:23;;;;;;;72.57;35.97;;;-3.50;99.90;;;;;;5053508;28;20104;-76
2021/12/29 05:03:49;;;;;;;73.03;34.80;;;-3.50;99.90;;;;;;5053536;28;20054;-76
2021/12/29 05:08:40;;;;;;;70.43;35.15;;;-3.40;99.90;;;;;;5055242;28;20486;-77
2021/12/29 05:11:09;;;;;;;78.25;35.65;;;-3.40;99.90;;;;;;5053737;28;20078;-76
2021/12/29 05:13:38;;;;;;;83.65;36.00;;;-3.40;99.90;;;;;;5053630;28;20017;-76
2021/12/29 05:16:04;;;;;;;70.88;33.30;;;-3.40;99.90;;;;;;5053652;28;20028;-75
2021/12/29 05:18:32;;;;;;;77.95;34.65;;;-3.40;99.90;;;;;;5053559;28;20014;-76
2021/12/29 05:20:58;;;;;;;81.80;38.70;;;-3.40;99.90;;;;;;5054820;28;20021;-76
2021/12/29 05:23:25;;;;;;;84.88;37.75;;;-3.40;99.90;;;;;;5053372;28;20567;-77
2021/12/29 05:25:51;;;;;;;70.28;32.97;;;-3.40;99.90;;;;;;5053108;28;20029;-76
2021/12/29 05:28:17;;;;;;;81.72;34.25;;;-3.40;99.90;;;;;;5054761;28;20482;-76
2021/12/29 05:30:44;;;;;;;75.70;35.92;;;-3.40;99.90;;;;;;5053243;28;20013;-76
2021/12/29 05:33:09;;;;;;;77.80;36.60;;;-3.30;99.90;;;;;;5053416;28;20391;-76
2021/12/29 05:35:35;;;;;;;69.85;35.30;;;-3.40;99.90;;;;;;5056613;28;20020;-76
2021/12/29 05:38:01;;;;;;;72.80;34.40;;;-3.40;99.90;;;;;;5055415;28;20493;-76
2021/12/29 05:40:27;;;;;;;69.25;33.65;;;-3.40;99.90;;;;;;5055588;28;20114;-75
2021/12/29 05:42:54;;;;;;;66.03;31.95;;;-3.40;99.90;;;;;;5055811;28;20023;-76
2021/12/29 05:45:20;;;;;;;77.68;33.85;;;-3.40;99.90;;;;;;5054533;28;20032;-76
2021/12/29 05:47:46;;;;;;;75.95;36.80;;;-3.30;99.90;;;;;;5053827;28;20705;-76
2021/12/29 05:50:16;;;;;;;64.85;34.00;;;-3.30;99.90;;;;;;5055417;28;20433;-76
2021/12/29 05:52:41;;;;;;;73.45;34.08;;;-3.30;99.90;;;;;;5058354;28;20025;-76
2021/12/29 05:55:08;;;;;;;76.72;35.58;;;-3.20;99.90;;;;;;5056414;28;20040;-76
2021/12/29 05:57:34;;;;;;;67.93;34.30;;;-3.30;99.90;;;;;;5059014;28;20470;-77
2021/12/29 05:59:59;;;;;;;71.80;34.45;;;-3.20;99.90;;;;;;5055261;28;20031;-76
2021/12/29 06:02:25;;;;;;;74.40;34.00;;;-3.20;99.90;;;;;;5060048;28;20496;-76
2021/12/29 06:04:50;;;;;;;68.60;33.33;;;-3.20;99.90;;;;;;5058898;28;20033;-76
2021/12/29 06:07:16;;;;;;;75.78;36.05;;;-3.10;99.90;;;;;;5057502;28;20036;-76
2021/12/29 06:09:42;;;;;;;77.07;33.83;;;-3.20;99.90;;;;;;5056312;28;20016;-76
2021/12/29 06:12:08;;;;;;;73.20;35.92;;;-3.10;99.90;;;;;;5057052;28;20017;-76
2021/12/29 06:14:34;;;;;;;85.03;36.78;;;-3.10;99.90;;;;;;5062034;28;20044;-75
2021/12/29 06:17:00;;;;;;;77.75;35.13;;;-3.10;99.90;;;;;;5061579;28;20044;-76
2021/12/29 06:19:25;;;;;;;76.40;35.13;;;-3.10;99.90;;;;;;5054964;28;20017;-76
2021/12/29 06:21:51;;;;;;;74.25;34.22;;;-3.10;99.90;;;;;;5055817;28;20424;-76
2021/12/29 06:24:17;;;;;;;77.45;37.00;;;-3.10;99.90;;;;;;5059011;28;20031;-76
2021/12/29 06:26:42;;;;;;;74.68;35.67;;;-3.10;99.90;;;;;;5057621;28;20044;-77
2021/12/29 06:29:08;;;;;;;85.03;37.75;;;-3.10;99.90;;;;;;5057250;28;20060;-76
2021/12/29 06:31:34;;;;;;;85.95;37.15;;;-3.10;99.90;;;;;;5058684;28;20478;-76
2021/12/29 06:34:02;;;;;;;77.10;36.67;;;-3.00;99.90;;;;;;5060327;28;20049;-76
2021/12/29 06:36:27;;;;;;;83.47;39.15;;;-3.00;99.90;;;;;;5058006;28;20025;-76
2021/12/29 06:38:53;;;;;;;83.10;38.40;;;-2.90;99.90;;;;;;5058256;28;20536;-76
2021/12/29 06:41:18;;;;;;;87.45;37.58;;;-2.90;99.90;;;;;;5055187;28;20421;-77
2021/12/29 06:43:44;;;;;;;78.40;36.65;;;-2.90;99.90;;;;;;5059030;28;20100;-76
2021/12/29 06:46:10;;;;;;;89.43;42.10;;;-2.90;99.90;;;;;;5059368;28;20043;-76
2021/12/29 06:48:35;;;;;;;88.93;41.00;;;-2.90;99.90;;;;;;5059200;28;20079;-77
2021/12/29 06:51:01;;;;;;;94.20;44.05;;;-2.90;99.90;;;;;;5057240;28;20021;-76
2021/12/29 06:53:29;;;;;;;97.78;42.08;;;-2.90;99.90;;;;;;5057240;28;20108;-77
2021/12/29 06:55:55;;;;;;;81.72;41.03;;;-2.80;99.90;;;;;;5055619;28;20019;-75
2021/12/29 06:58:21;;;;;;;82.93;39.15;;;-2.90;99.90;;;;;;5055326;28;20115;-76
2021/12/29 07:00:47;;;;;;;79.65;39.38;;;-2.80;99.90;;;;;;5053772;28;20184;-76
2021/12/29 07:03:12;;;;;;;82.80;41.72;;;-2.80;99.90;;;;;;5058815;28;20085;-76
2021/12/29 07:05:39;;;;;;;81.90;38.00;;;-2.80;99.90;;;;;;5056534;28;20487;-76
2021/12/29 07:08:05;;;;;;;92.80;41.92;;;-2.80;99.90;;;;;;5056951;28;20040;-76
2021/12/29 07:10:31;;;;;;;77.38;37.33;;;-2.80;99.90;;;;;;5048767;28;20754;-76
2021/12/29 07:12:57;;;;;;;92.30;41.63;;;-2.80;99.90;;;;;;5056502;28;20037;-76
2021/12/29 07:15:23;;;;;;;83.30;41.60;;;-2.80;99.90;;;;;;5056354;28;20708;-76
2021/12/29 07:17:48;;;;;;;146.13;61.55;;;-2.70;99.90;;;;;;5055071;28;20044;-76
2021/12/29 07:20:14;;;;;;;85.88;44.90;;;-2.70;99.90;;;;;;5056465;28;20490;-76
2021/12/29 07:22:40;;;;;;;100.63;45.03;;;-2.70;99.90;;;;;;5056505;28;20363;-76
2021/12/29 07:25:06;;;;;;;131.98;55.58;;;-2.60;99.90;;;;;;5054073;28;20040;-76
2021/12/29 07:27:31;;;;;;;93.80;45.55;;;-2.60;99.90;;;;;;5057112;28;20013;-76
2021/12/29 07:29:57;;;;;;;95.30;42.92;;;-2.60;99.90;;;;;;5055348;28;20118;-76
2021/12/29 07:32:22;;;;;;;92.80;44.10;;;-2.60;99.90;;;;;;5055978;28;20029;-76
2021/12/29 07:34:48;;;;;;;100.50;46.85;;;-2.60;99.90;;;;;;5056835;28;20048;-75
2021/12/29 07:37:14;;;;;;;82.72;40.78;;;-2.60;99.90;;;;;;5048570;28;20064;-76
2021/12/29 07:39:40;;;;;;;94.40;45.28;;;-2.60;99.90;;;;;;5052899;28;20111;-76
2021/12/29 07:42:07;;;;;;;94.57;45.28;;;-2.50;99.90;;;;;;5051420;28;20457;-75
2021/12/29 07:44:33;;;;;;;81.57;40.15;;;-2.50;99.90;;;;;;5068735;28;20036;-76
2021/12/29 07:46:59;;;;;;;93.05;44.33;;;-2.50;99.90;;;;;;5055106;28;20074;-76
2021/12/29 07:49:26;;;;;;;83.05;41.10;;;-2.40;99.90;;;;;;5054508;28;20032;-76
2021/12/29 07:51:52;;;;;;;90.82;43.03;;;-2.40;99.90;;;;;;5056956;28;20470;-76
2021/12/29 07:54:18;;;;;;;92.85;42.88;;;-2.30;99.90;;;;;;5054388;28;20033;-76
2021/12/29 07:56:45;;;;;;;93.75;40.03;;;-2.20;99.90;;;;;;5053748;28;20031;-76
2021/12/29 07:59:11;;;;;;;85.10;41.70;;;-2.20;99.90;;;;;;5057781;28;20093;-76
2021/12/29 08:01:38;;;;;;;85.50;44.10;;;-2.10;99.90;;;;;;5056571;28;20270;-76
2021/12/29 08:04:04;;;;;;;98.28;45.63;;;-2.10;99.90;;;;;;5052041;28;20529;-76
2021/12/29 08:06:30;;;;;;;103.40;52.08;;;-2.10;99.90;;;;;;5056731;28;20040;-76
2021/12/29 08:08:55;;;;;;;112.05;52.72;;;-2.00;99.90;;;;;;5053911;28;20021;-76
2021/12/29 08:11:21;;;;;;;117.40;57.05;;;-2.00;99.90;;;;;;5053022;28;20020;-77
2021/12/29 08:13:48;;;;;;;107.25;55.10;;;-2.00;99.90;;;;;;5054269;28;20033;-75
2021/12/29 08:16:14;;;;;;;117.18;54.90;;;-1.90;99.90;;;;;;5053950;28;20048;-76
2021/12/29 08:18:40;;;;;;;106.97;51.28;;;-1.90;99.90;;;;;;5054600;28;20108;-76
2021/12/29 08:21:06;;;;;;;99.50;49.25;;;-1.90;99.90;;;;;;5053195;28;20507;-76
2021/12/29 08:23:32;;;;;;;105.13;49.28;;;-1.90;99.90;;;;;;5052798;28;20013;-76
2021/12/29 08:25:59;;;;;;;107.75;52.17;;;-1.90;99.90;;;;;;5053461;28;20072;-75
2021/12/29 08:28:25;;;;;;;99.60;47.30;;;-1.90;99.90;;;;;;5053165;28;20036;-75
2021/12/29 08:30:54;;;;;;;96.32;48.80;;;-1.80;99.90;;;;;;5057370;28;20040;-75
2021/12/29 08:33:20;;;;;;;106.32;48.03;;;-1.80;99.90;;;;;;5057150;28;20031;-75
2021/12/29 08:35:46;;;;;;;104.78;47.97;;;-1.70;99.90;;;;;;5054058;28;20124;-76
2021/12/29 08:38:12;;;;;;;113.50;50.90;;;-1.70;99.90;;;;;;5055164;28;20046;-75
2021/12/29 08:40:37;;;;;;;112.40;50.38;;;-1.60;99.90;;;;;;5055749;28;20044;-76
2021/12/29 08:43:03;;;;;;;105.22;50.28;;;-1.60;99.90;;;;;;5055865;28;20539;-75
2021/12/29 08:45:31;;;;;;;106.63;49.88;;;-1.50;99.90;;;;;;5055332;28;20047;-76
2021/12/29 08:47:58;;;;;;;95.20;47.63;;;-1.50;99.90;;;;;;5056665;28;20025;-76
2021/12/29 08:50:29;;;;;;;101.10;48.75;;;-1.40;99.90;;;;;;5052173;28;20093;-75
2021/12/29 08:52:56;;;;;;;101.60;48.38;;;-1.40;99.90;;;;;;5057438;28;20024;-75
2021/12/29 08:55:22;;;;;;;110.40;49.08;;;-1.40;99.90;;;;;;5056960;28;20029;-75
2021/12/29 08:57:47;;;;;;;104.95;48.92;;;-1.30;99.90;;;;;;5055509;28;20024;-75
2021/12/29 09:00:16;;;;;;;106.82;49.58;;;-1.20;99.90;;;;;;5058799;28;20029;-76
2021/12/29 09:02:42;;;;;;;108.18;53.38;;;-1.20;99.90;;;;;;5067099;28;20025;-75
2021/12/29 09:05:10;;;;;;;99.90;44.90;;;-1.10;99.90;;;;;;5050161;28;20429;-75
2021/12/29 09:07:36;;;;;;;100.03;46.00;;;-1.10;99.90;;;;;;5051058;28;20112;-76
2021/12/29 09:10:05;;;;;;;91.97;44.55;;;-1.00;99.90;;;;;;5051693;28;20104;-76
2021/12/29 09:12:31;;;;;;;101.35;46.05;;;-1.00;99.90;;;;;;5055788;28;20017;-76
2021/12/29 09:14:56;;;;;;;117.35;51.65;;;-0.90;99.90;;;;;;5053968;28;20021;-76
2021/12/29 09:17:22;;;;;;;123.03;55.65;;;-0.90;99.90;;;;;;5054524;28;20102;-76
2021/12/29 09:19:51;;;;;;;109.15;52.10;;;-0.80;99.90;;;;;;5054359;28;20052;-76
2021/12/29 09:22:16;;;;;;;115.47;52.15;;;-0.70;99.90;;;;;;5055500;28;20041;-76
2021/12/29 09:24:43;;;;;;;119.95;57.40;;;-0.70;99.90;;;;;;5053866;28;20076;-75
2021/12/29 09:27:09;;;;;;;123.20;57.20;;;-0.60;99.90;;;;;;5054478;28;20035;-75
2021/12/29 09:29:35;;;;;;;120.90;52.70;;;-0.60;99.90;;;;;;5053386;28;20013;-76
2021/12/29 09:32:02;;;;;;;107.47;53.25;;;-0.50;99.90;;;;;;5049153;28;20024;-75
2021/12/29 09:34:28;;;;;;;122.85;61.55;;;-0.50;99.90;;;;;;5051173;28;20049;-75
2021/12/29 09:36:54;;;;;;;128.55;61.22;;;-0.40;99.90;;;;;;5055593;28;20063;-76
2021/12/29 09:39:20;;;;;;;127.57;57.92;;;-0.40;99.90;;;;;;5055369;28;20025;-76
2021/12/29 09:41:45;;;;;;;121.68;58.08;;;-0.40;99.90;;;;;;5052752;28;20032;-76
2021/12/29 09:44:12;;;;;;;124.28;58.10;;;-0.40;99.90;;;;;;5052947;28;20029;-76
2021/12/29 09:46:38;;;;;;;110.80;56.67;;;-0.40;99.90;;;;;;5051337;28;20465;-76
2021/12/29 09:49:05;;;;;;;111.55;52.90;;;-0.40;99.90;;;;;;5054229;28;20377;-75
2021/12/29 09:51:31;;;;;;;107.20;53.30;;;-0.30;99.90;;;;;;5053749;28;20021;-76
2021/12/29 09:53:56;;;;;;;128.27;63.60;;;-0.30;99.90;;;;;;5059168;28;20374;-75
2021/12/29 09:56:22;;;;;;;112.68;57.50;;;-0.30;99.90;;;;;;5059489;28;20554;-76
2021/12/29 09:58:49;;;;;;;102.28;51.42;;;-0.20;99.90;;;;;;5057380;28;20526;-76
2021/12/29 10:01:15;;;;;;;97.05;48.80;;;-0.20;99.90;;;;;;5059225;28;20492;-77
2021/12/29 10:03:42;;;;;;;110.30;51.97;;;-0.10;99.90;;;;;;5050987;28;20021;-76
2021/12/29 10:06:09;;;;;;;104.90;50.88;;;-0.10;99.90;;;;;;5054198;28;20063;-77
2021/12/29 10:08:43;;;;;;;104.50;49.75;;;0.00;99.90;;;;;;5056122;28;20117;-75
2021/12/29 10:11:13;;;;;;;107.78;51.10;;;0.00;99.90;;;;;;5057264;28;20029;-77
2021/12/29 10:13:42;;;;;;;104.35;50.28;;;0.00;99.90;;;;;;5058722;28;20028;-75
2021/12/29 10:16:11;;;;;;;102.15;52.40;;;0.10;99.90;;;;;;5055509;28;20032;-76
2021/12/29 10:18:41;;;;;;;99.88;48.35;;;0.10;99.90;;;;;;5052560;28;20438;-75
2021/12/29 10:21:13;;;;;;;101.75;49.72;;;0.10;99.90;;;;;;5057518;28;20024;-76
2021/12/29 10:23:46;;;;;;;101.85;53.03;;;0.20;99.90;;;;;;5053750;28;20021;-76
2021/12/29 10:26:21;;;;;;;103.70;48.30;;;0.20;99.90;;;;;;5053964;28;20033;-74
2021/12/29 10:28:50;;;;;;;84.05;42.45;;;0.20;99.90;;;;;;5052953;28;20034;-75
2021/12/29 10:31:24;;;;;;;88.40;43.30;;;0.20;99.90;;;;;;5056533;28;20492;-77
2021/12/29 10:33:55;;;;;;;86.40;42.20;;;0.20;99.90;;;;;;5058528;28;20403;-75
2021/12/29 10:36:23;;;;;;;92.25;44.47;;;0.20;99.90;;;;;;5057826;28;20024;-75
2021/12/29 10:39:05;;;;;;;84.55;43.50;;;0.20;99.90;;;;;;5057386;28;20024;-75
2021/12/29 10:41:42;;;;;;;104.05;57.22;;;0.20;99.90;;;;;;5056287;28;20012;-76
2021/12/29 10:44:07;;;;;;;124.80;58.70;;;0.30;99.90;;;;;;5057281;28;20178;-75
2021/12/29 10:46:33;;;;;;;99.80;48.25;;;0.30;99.90;;;;;;5056725;28;20116;-76
2021/12/29 10:49:05;;;;;;;109.47;49.45;;;0.30;99.90;;;;;;5055137;28;20387;-76
2021/12/29 10:51:36;;;;;;;91.85;47.65;;;0.30;99.90;;;;;;5056235;28;20009;-76
2021/12/29 10:54:09;;;;;;;122.40;56.03;;;0.40;99.90;;;;;;5055264;28;20020;-75
2021/12/29 10:56:36;;;;;;;114.20;53.10;;;0.40;99.90;;;;;;5052316;28;20021;-76
2021/12/29 10:59:21;;;;;;;272.05;104.97;;;0.40;99.90;;;;;;5052532;28;20096;-75
2021/12/29 11:01:48;;;;;;;497.70;183.63;;;0.40;99.90;;;;;;5055514;28;20517;-76
2021/12/29 11:04:15;;;;;;;212.00;87.90;;;0.50;99.90;;;;;;5057922;28;20077;-75
2021/12/29 11:06:44;;;;;;;323.98;121.75;;;0.50;99.90;;;;;;5056648;28;20020;-77
2021/12/29 11:09:11;;;;;;;172.77;73.90;;;0.50;99.90;;;;;;5053356;28;20120;-75
2021/12/29 11:11:44;;;;;;;157.10;78.78;;;0.50;99.90;;;;;;5055422;28;20021;-75
2021/12/29 11:14:13;;;;;;;183.95;90.45;;;0.40;99.90;;;;;;5058019;28;20017;-74
2021/12/29 11:16:40;;;;;;;192.90;100.93;;;0.50;99.90;;;;;;5056916;28;20021;-75
2021/12/29 11:19:06;;;;;;;145.35;74.00;;;0.50;99.90;;;;;;5051251;28;20052;-75
2021/12/29 11:21:35;;;;;;;140.05;66.93;;;0.50;99.90;;;;;;5058919;28;20044;-75
2021/12/29 11:24:24;;;;;;;136.02;67.38;;;0.50;99.90;;;;;;5054578;28;20043;-75
2021/12/29 11:26:50;;;;;;;160.15;77.45;;;0.60;99.90;;;;;;5049878;28;20043;-75
2021/12/29 11:29:19;;;;;;;183.90;96.18;;;0.60;99.90;;;;;;5059117;28;20056;-75
2021/12/29 11:31:58;;;;;;;152.52;74.75;;;0.60;99.90;;;;;;5055597;28;20019;-74
2021/12/29 11:34:27;;;;;;;170.63;77.47;;;0.70;99.90;;;;;;5073842;28;20111;-75
2021/12/29 11:37:13;;;;;;;134.73;68.65;;;0.60;99.90;;;;;;5051532;28;20021;-77
2021/12/29 11:39:45;;;;;;;119.05;62.97;;;0.70;99.90;;;;;;5051326;28;20021;-75
2021/12/29 11:42:12;;;;;;;134.40;64.18;;;0.70;99.90;;;;;;5056424;28;20071;-75
2021/12/29 11:44:38;;;;;;;116.10;56.60;;;0.70;99.90;;;;;;5057452;28;20296;-74
2021/12/29 11:47:05;;;;;;;108.57;55.35;;;0.80;99.90;;;;;;5056142;28;20382;-75
2021/12/29 11:49:31;;;;;;;208.15;93.85;;;0.80;99.90;;;;;;5054371;28;20013;-75
2021/12/29 11:52:08;;;;;;;191.00;82.63;;;0.80;99.90;;;;;;5052222;28;20021;-75
2021/12/29 11:54:36;;;;;;;172.13;76.55;;;0.80;99.90;;;;;;5052614;28;20083;-74
2021/12/29 11:57:22;;;;;;;173.20;78.10;;;0.80;99.90;;;;;;5050165;28;20029;-74
2021/12/29 11:59:48;;;;;;;102.28;52.80;;;0.90;99.90;;;;;;5055213;28;20017;-75
2021/12/29 12:02:26;;;;;;;135.35;66.53;;;0.90;99.90;;;;;;5051633;28;20029;-74
2021/12/29 12:05:13;;;;;;;152.93;74.05;;;0.90;99.90;;;;;;5042722;28;20064;-74
2021/12/29 12:07:39;;;;;;;130.50;64.82;;;1.00;99.90;;;;;;5059572;28;20451;-74
2021/12/29 12:10:11;;;;;;;174.45;87.30;;;0.90;99.90;;;;;;5056646;28;20016;-75
2021/12/29 12:12:46;;;;;;;197.18;92.03;;;0.90;99.90;;;;;;5056373;28;20079;-75
2021/12/29 12:15:13;;;;;;;104.05;52.35;;;0.90;99.90;;;;;;5052480;28;20017;-75
2021/12/29 12:17:41;;;;;;;269.58;131.32;;;0.90;99.90;;;;;;5058440;28;20363;-75
2021/12/29 12:20:14;;;;;;;138.38;68.20;;;0.90;99.90;;;;;;5054657;28;20027;-75
2021/12/29 12:22:52;;;;;;;150.43;78.47;;;0.90;99.90;;;;;;5057134;28;20556;-77
2021/12/29 12:25:29;;;;;;;178.73;91.97;;;0.90;99.90;;;;;;5060109;28;20478;-77
2021/12/29 12:28:02;;;;;;;193.48;92.63;;;0.90;99.90;;;;;;5053667;28;20040;-77
2021/12/29 12:30:40;;;;;;;95.40;52.05;;;0.90;99.90;;;;;;5054126;28;20457;-77
2021/12/29 12:33:32;;;;;;;186.80;89.63;;;0.90;99.90;;;;;;5052427;28;20032;-77
2021/12/29 12:36:08;;;;;;;122.18;62.45;;;1.00;99.90;;;;;;5050705;28;20057;-77